createdAt,value
2018-04-24T00:01:40.012Z,74.20
2018-04-24T00:06:43.989Z,73.90
2018-04-24T00:11:48.393Z,74.30
2018-04-24T00:16:52.221Z,74.30
2018-04-24T00:21:57.981Z,74.10
2018-04-24T00:27:02.826Z,74.50
2018-04-24T00:32:08.098Z,74.20
2018-04-24T00:37:16.179Z,74.60
2018-04-24T00:42:21.124Z,74.80
2018-04-24T00:47:26.412Z,74.70
2018-04-24T00:52:29.764Z,75.10
2018-04-24T00:57:32.957Z,75.00
2018-04-24T01:02:37.715Z,74.90
2018-04-24T01:07:41.967Z,74.90
2018-04-24T01:12:46.890Z,75.10
2018-04-24T01:17:50.638Z,75.30
2018-04-24T01:23:03.142Z,75.60
2018-04-24T01:28:09.869Z,75.20
2018-04-24T01:33:17.932Z,75.50
2018-04-24T01:38:21.169Z,75.50
2018-04-24T01:43:27.646Z,75.70
2018-04-24T01:48:33.228Z,75.50
2018-04-24T01:58:46.115Z,75.90
2018-04-24T02:03:49.428Z,76.00
2018-04-24T02:08:54.078Z,75.90
2018-04-24T02:13:59.557Z,75.90
2018-04-24T02:19:03.161Z,75.90
2018-04-24T02:24:06.422Z,76.10
2018-04-24T02:34:22.026Z,75.80
2018-04-24T02:39:25.580Z,75.90
2018-04-24T02:44:30.904Z,75.70
2018-04-24T02:49:34.041Z,75.80
2018-04-24T02:54:37.080Z,75.70
2018-04-24T02:59:42.720Z,75.60
2018-04-24T03:04:53.072Z,75.50
2018-04-24T03:09:59.108Z,75.20
2018-04-24T03:15:02.508Z,75.50
2018-04-24T03:20:08.394Z,75.30
2018-04-24T03:25:14.059Z,75.20
2018-04-24T03:30:19.273Z,75.70
2018-04-24T03:35:25.222Z,76.20
2018-04-24T03:40:29.670Z,76.60
2018-04-24T03:45:32.773Z,76.10
2018-04-24T03:50:36.016Z,75.80
2018-04-24T03:55:42.706Z,75.90
2018-04-24T04:00:46.491Z,76.10
2018-04-24T04:05:52.216Z,75.90
2018-04-24T04:10:55.408Z,75.90
2018-04-24T04:15:58.355Z,76.60
2018-04-24T04:21:13.772Z,76.40
2018-04-24T04:26:18.360Z,75.90
2018-04-24T04:31:21.378Z,76.30
2018-04-24T04:36:24.198Z,76.30
2018-04-24T04:41:27.922Z,76.30
2018-04-24T04:51:40.933Z,76.50
2018-04-24T04:56:44.395Z,76.50
2018-04-24T05:01:47.363Z,76.30
2018-04-24T05:06:53.052Z,77.20
2018-04-24T05:11:56.871Z,76.10
2018-04-24T05:17:00.420Z,75.80
2018-04-24T05:22:03.978Z,76.80
2018-04-24T05:27:07.987Z,77.00
2018-04-24T05:32:11.129Z,77.40
2018-04-24T05:37:14.092Z,77.70
2018-04-24T05:42:20.261Z,77.80
2018-04-24T05:47:23.872Z,77.70
2018-04-24T05:52:26.709Z,77.60
2018-04-24T05:57:29.594Z,77.10
2018-04-24T06:07:39.795Z,75.70
2018-04-24T06:12:42.968Z,74.50
2018-04-24T06:17:46.073Z,74.10
2018-04-24T06:22:51.221Z,74.00
2018-04-24T06:33:02.501Z,71.80
2018-04-24T06:38:06.260Z,71.60
2018-04-24T06:43:09.348Z,70.00
2018-04-24T06:48:13.561Z,69.30
2018-04-24T06:53:16.192Z,68.40
2018-04-24T06:58:18.789Z,68.40
2018-04-24T07:03:21.489Z,67.50
2018-04-24T07:08:24.568Z,65.80
2018-04-24T07:13:28.115Z,65.30
2018-04-24T07:18:31.923Z,64.30
2018-04-24T07:23:35.879Z,61.90
2018-04-24T07:28:39.085Z,61.70
2018-04-24T07:33:42.483Z,62.40
2018-04-24T07:38:49.560Z,62.20
2018-04-24T07:43:54.589Z,61.40
2018-04-24T07:48:57.912Z,60.50
2018-04-24T07:54:02.556Z,60.00
2018-04-24T07:59:07.537Z,59.00
2018-04-24T08:04:12.090Z,58.50
2018-04-24T08:09:15.749Z,58.70
2018-04-24T08:14:20.016Z,59.20
2018-04-24T08:19:22.946Z,58.90
2018-04-24T08:24:27.527Z,58.10
2018-04-24T08:29:31.727Z,57.80
2018-04-24T08:34:34.695Z,57.80
2018-04-24T08:39:39.370Z,57.70
2018-04-24T08:44:43.358Z,57.20
2018-04-24T08:49:46.539Z,57.70
2018-04-24T08:54:49.488Z,56.50
2018-04-24T08:59:52.888Z,56.10
2018-04-24T09:04:55.634Z,55.80
2018-04-24T09:09:58.453Z,55.50
2018-04-24T09:15:01.300Z,56.60
2018-04-24T09:20:04.281Z,56.20
2018-04-24T09:25:07.243Z,55.80
2018-04-24T09:30:10.228Z,55.50
2018-04-24T09:35:18.819Z,56.30
2018-04-24T09:40:21.845Z,56.50
2018-04-24T09:45:26.056Z,55.80
2018-04-24T09:50:30.128Z,56.20
2018-04-24T09:55:33.118Z,56.60
2018-04-24T10:00:40.088Z,55.70
2018-04-24T10:05:43.110Z,54.50
2018-04-24T10:10:47.609Z,53.90
2018-04-24T10:15:52.416Z,53.00
2018-04-24T10:20:55.266Z,52.70
2018-04-24T10:25:58.603Z,52.30
2018-04-24T10:31:02.336Z,53.80
2018-04-24T10:36:06.856Z,54.60
2018-04-24T10:41:11.335Z,53.30
2018-04-24T10:46:14.355Z,53.00
2018-04-24T10:51:17.858Z,52.80
2018-04-24T10:56:22.476Z,51.60
2018-04-24T11:01:25.623Z,52.10
2018-04-24T11:06:32.767Z,52.50
2018-04-24T11:11:37.450Z,53.00
2018-04-24T11:16:40.263Z,52.40
2018-04-24T11:21:43.353Z,51.60
2018-04-24T11:26:46.196Z,52.70
2018-04-24T11:31:48.778Z,52.00
2018-04-24T11:36:52.092Z,52.60
2018-04-24T11:41:55.036Z,52.20
2018-04-24T11:46:58.186Z,52.90
2018-04-24T11:57:08.426Z,51.40
2018-04-24T12:02:12.525Z,51.50
2018-04-24T12:07:15.708Z,51.20
2018-04-24T12:12:19.778Z,50.90
2018-04-24T12:17:23.401Z,50.80
2018-04-24T12:22:29.139Z,50.20
2018-04-24T12:27:32.500Z,50.10
2018-04-24T12:32:35.781Z,50.40
2018-04-24T12:37:39.932Z,50.30
2018-04-24T12:42:43.409Z,49.80
2018-04-24T12:47:46.207Z,49.50
2018-04-24T12:52:49.585Z,50.30
2018-04-24T12:57:53.429Z,50.00
2018-04-24T13:02:58.416Z,49.80
2018-04-24T13:08:01.231Z,48.00
2018-04-24T13:13:05.613Z,47.00
2018-04-24T13:18:08.588Z,48.30
2018-04-24T13:23:12.243Z,48.50
2018-04-24T13:28:15.243Z,47.10
2018-04-24T13:33:19.595Z,47.40
2018-04-24T13:38:23.466Z,47.90
2018-04-24T13:43:26.892Z,47.40
2018-04-24T13:48:29.540Z,47.90
2018-04-24T13:53:35.289Z,47.60
2018-04-24T13:58:39.528Z,46.10
2018-04-24T14:03:44.286Z,45.70
2018-04-24T14:08:47.218Z,45.70
2018-04-24T14:13:50.312Z,45.40
2018-04-24T14:18:53.772Z,44.90
2018-04-24T14:23:56.556Z,46.10
2018-04-24T14:29:02.042Z,46.20
2018-04-24T14:34:04.913Z,47.00
2018-04-24T14:39:09.929Z,47.20
2018-04-24T14:44:13.774Z,47.10
2018-04-24T14:49:17.446Z,47.20
2018-04-24T14:54:20.745Z,47.00
2018-04-24T14:59:26.154Z,47.50
2018-04-24T15:04:31.271Z,47.60
2018-04-24T15:09:34.671Z,47.00
2018-04-24T15:14:38.764Z,46.40
2018-04-24T15:19:42.228Z,46.50
2018-04-24T15:24:47.361Z,46.40
2018-04-24T15:29:51.777Z,47.10
2018-04-24T15:34:54.752Z,47.10
2018-04-24T15:39:57.614Z,47.40
2018-04-24T15:45:00.713Z,47.70
2018-04-24T15:50:04.587Z,47.60
2018-04-24T15:55:08.444Z,46.90
2018-04-24T16:00:11.548Z,46.50
2018-04-24T16:05:15.627Z,47.10
2018-04-24T16:10:19.815Z,47.40
2018-04-24T16:15:24.697Z,47.80
2018-04-24T16:20:30.531Z,47.80
2018-04-24T16:25:33.571Z,47.80
2018-04-24T16:30:37.093Z,48.40
2018-04-24T16:35:42.640Z,48.50
2018-04-24T16:40:48.029Z,49.40
2018-04-24T16:45:51.671Z,48.80
2018-04-24T16:50:54.923Z,49.00
2018-04-24T16:55:58.517Z,49.10
2018-04-24T17:11:16.909Z,48.60
2018-04-24T17:16:22.556Z,49.00
2018-04-24T17:21:25.363Z,48.70
2018-04-24T17:26:29.473Z,49.10
2018-04-24T17:31:32.592Z,49.10
2018-04-24T17:36:35.867Z,49.20
2018-04-24T17:41:40.394Z,49.30
2018-04-24T17:46:43.112Z,49.70
2018-04-24T17:51:46.686Z,49.80
2018-04-24T17:56:50.075Z,50.20
2018-04-24T18:01:53.657Z,50.60
2018-04-24T18:06:57.404Z,51.30
2018-04-24T18:12:02.618Z,51.40
2018-04-24T18:22:14.251Z,53.10
2018-04-24T18:27:19.368Z,54.00
2018-04-24T18:32:24.167Z,53.90
2018-04-24T18:37:28.612Z,55.60
2018-04-24T18:42:33.509Z,56.20
2018-04-24T18:47:40.823Z,56.10
2018-04-24T18:52:46.030Z,57.20
2018-04-24T18:57:52.791Z,57.10
2018-04-24T19:02:56.730Z,57.40
2018-04-24T19:08:06.618Z,57.60
2018-04-24T19:13:10.614Z,57.70
2018-04-24T19:18:13.661Z,57.70
2018-04-24T19:23:16.993Z,58.00
2018-04-24T19:28:22.148Z,58.80
2018-04-24T19:33:31.765Z,58.70
2018-04-24T19:38:35.886Z,58.80
2018-04-24T19:43:39.594Z,58.90
2018-04-24T19:48:50.319Z,59.10
2018-04-24T19:53:53.517Z,59.50
2018-04-24T19:59:04.223Z,59.70
2018-04-24T20:04:10.036Z,59.50
2018-04-24T20:09:13.003Z,59.50
2018-04-24T20:14:17.301Z,60.30
2018-04-24T20:19:21.735Z,60.30
2018-04-24T20:29:33.706Z,60.80
2018-04-24T20:34:38.306Z,60.80
2018-04-24T20:55:10.773Z,61.70
2018-04-24T21:00:17.477Z,62.10
2018-04-24T21:10:28.100Z,62.90
2018-04-24T21:15:34.135Z,62.80
2018-04-24T21:25:50.314Z,63.50
2018-04-24T21:30:56.347Z,63.70
2018-04-24T21:36:01.960Z,64.20
2018-04-24T21:41:07.436Z,64.60
2018-04-24T21:46:13.255Z,65.10
2018-04-24T21:51:19.381Z,64.80
2018-04-24T21:56:27.167Z,65.40
2018-04-24T22:01:31.445Z,64.60
2018-04-24T22:11:43.596Z,65.50
2018-04-24T22:16:49.194Z,65.60
2018-04-24T22:21:57.481Z,66.00
2018-04-24T22:32:09.024Z,66.20
2018-04-24T22:37:12.921Z,66.20
2018-04-24T22:42:21.178Z,66.30
2018-04-24T22:47:26.374Z,66.10
2018-04-24T22:52:34.022Z,66.40
2018-04-24T22:57:37.210Z,66.60
2018-04-24T23:02:44.935Z,66.80
2018-04-24T23:07:50.296Z,66.60
2018-04-24T23:13:06.514Z,66.80
2018-04-24T23:18:24.033Z,67.00
2018-04-24T23:23:28.007Z,66.80
2018-04-24T23:28:33.021Z,67.50
2018-04-24T23:33:40.451Z,67.30
2018-04-24T23:38:45.956Z,67.20
2018-04-24T23:43:52.738Z,67.50
2018-04-24T23:49:00.486Z,68.20
2018-04-24T23:54:08.556Z,68.00
2018-04-24T23:59:13.432Z,67.90
